Terminal Aerodrome Forecast
Issued by NWS Shreveport, LA

Home | Current Version | Previous Version | Text Only | Print | Product List | Glossary On
Versions: 1 2 3 4 5 6 7 8 9 10 11 12 13 14 15
000
FTUS44 KSHV 201100
TAFSHV
TAF
KSHV 201120Z 2012/2112 VRB03KT P6SM BKN180 BKN250
     FM201600 15007KT P6SM SCT060 BKN250
     FM210100 16004KT P6SM BKN060 BKN250
     FM210800 18004KT P6SM VCSH BKN060 OVC250=

USA.gov is the U.S. government's official web portal to all federal, state and local government web resources and services.